createdAt,value
2022-10-02T00:00:44.843Z,97.74
2022-10-02T00:01:44.944Z,97.85
2022-10-02T00:02:44.813Z,97.85
2022-10-02T00:03:44.793Z,97.74
2022-10-02T00:04:44.793Z,97.74
2022-10-02T00:05:44.770Z,97.54
2022-10-02T00:06:44.775Z,97.74
2022-10-02T00:07:44.744Z,97.74
2022-10-02T00:08:44.735Z,97.54
2022-10-02T00:09:44.722Z,97.44
2022-10-02T00:10:44.721Z,97.69
2022-10-02T00:11:44.699Z,97.79
2022-10-02T00:12:45.636Z,97.89
2022-10-02T00:13:44.666Z,97.89
2022-10-02T00:14:44.655Z,97.99
2022-10-02T00:15:44.647Z,97.79
2022-10-02T00:16:44.692Z,97.58
2022-10-02T00:17:44.616Z,97.58
2022-10-02T00:18:44.603Z,97.79
2022-10-02T00:19:44.593Z,97.79
2022-10-02T00:20:44.579Z,97.99
2022-10-02T00:21:44.568Z,97.79
2022-10-02T00:22:44.550Z,97.79
2022-10-02T00:23:44.543Z,97.58
2022-10-02T00:24:44.527Z,97.58
2022-10-02T00:25:44.509Z,97.49
2022-10-02T00:26:44.512Z,97.58
2022-10-02T00:27:44.489Z,97.58
2022-10-02T00:28:44.479Z,97.49
2022-10-02T00:29:44.467Z,97.49
2022-10-02T00:30:44.449Z,97.69
2022-10-02T00:31:44.546Z,97.79
2022-10-02T00:32:44.433Z,97.79
2022-10-02T00:33:44.407Z,97.79
2022-10-02T00:34:44.392Z,97.89
2022-10-02T00:35:44.383Z,98.20
2022-10-02T00:36:44.371Z,98.30
2022-10-02T00:37:44.351Z,98.20
2022-10-02T00:38:45.292Z,98.30
2022-10-02T00:39:44.323Z,98.40
2022-10-02T00:40:44.312Z,98.40
2022-10-02T00:41:44.311Z,98.30
2022-10-02T00:42:44.285Z,98.30
2022-10-02T00:43:44.275Z,98.20
2022-10-02T00:44:44.264Z,98.20
2022-10-02T00:45:44.280Z,97.99
2022-10-02T00:46:44.245Z,98.14
2022-10-02T00:47:44.221Z,98.24
2022-10-02T00:48:44.205Z,98.24
2022-10-02T00:49:44.195Z,98.14
2022-10-02T00:50:44.183Z,98.24
2022-10-02T00:51:44.185Z,98.24
2022-10-02T00:52:45.112Z,98.35
2022-10-02T00:53:44.139Z,98.24
2022-10-02T00:54:44.132Z,98.24
2022-10-02T00:55:44.118Z,98.24
2022-10-02T00:56:44.114Z,98.35
2022-10-02T00:57:44.086Z,98.55
2022-10-02T00:58:44.076Z,98.45
2022-10-02T00:59:45.014Z,98.45
2022-10-02T01:00:45.018Z,98.35
2022-10-02T01:01:44.091Z,98.14
2022-10-02T01:02:44.978Z,98.35
2022-10-02T01:03:44.966Z,98.45
2022-10-02T01:04:43.998Z,98.55
2022-10-02T01:05:43.989Z,98.55
2022-10-02T01:06:43.976Z,98.45
2022-10-02T01:07:43.959Z,98.24
2022-10-02T01:08:43.951Z,98.20
2022-10-02T01:09:43.937Z,98.30
2022-10-02T01:10:43.920Z,98.20
2022-10-02T01:11:43.919Z,98.20
2022-10-02T01:12:43.891Z,98.20
2022-10-02T01:13:43.881Z,98.10
2022-10-02T01:14:43.862Z,98.10
2022-10-02T01:15:43.851Z,98.10
2022-10-02T01:16:43.887Z,98.10
2022-10-02T01:17:43.830Z,97.99
2022-10-02T01:18:43.811Z,98.10
2022-10-02T01:19:43.802Z,97.99
2022-10-02T01:20:43.787Z,97.89
2022-10-02T01:21:43.784Z,97.89
2022-10-02T01:22:43.763Z,97.69
2022-10-02T01:23:43.750Z,97.58
2022-10-02T01:24:43.734Z,97.69
2022-10-02T01:25:43.724Z,97.69
2022-10-02T01:26:43.725Z,97.58
2022-10-02T01:27:43.694Z,97.58
2022-10-02T01:28:43.684Z,97.49
2022-10-02T01:29:43.675Z,97.49
2022-10-02T01:30:43.665Z,97.53
2022-10-02T01:31:43.670Z,97.63
2022-10-02T01:32:43.626Z,97.74
2022-10-02T01:33:43.616Z,97.74
2022-10-02T01:34:43.606Z,97.74
2022-10-02T01:35:43.603Z,97.83
2022-10-02T01:36:43.577Z,97.94
2022-10-02T01:37:43.579Z,97.94
2022-10-02T01:38:43.556Z,98.04
2022-10-02T01:39:43.547Z,98.19
2022-10-02T01:40:43.538Z,98.29
2022-10-02T01:41:43.517Z,98.24
2022-10-02T01:42:43.498Z,98.35
2022-10-02T01:43:43.492Z,98.35
2022-10-02T01:44:43.480Z,98.55
2022-10-02T01:45:43.497Z,98.65
2022-10-02T01:46:43.439Z,98.75
2022-10-02T01:47:43.440Z,98.86
2022-10-02T01:48:43.419Z,98.71
2022-10-02T01:49:43.419Z,98.65
2022-10-02T01:50:43.400Z,98.40
2022-10-02T01:51:43.381Z,98.30
2022-10-02T01:52:43.371Z,98.30
2022-10-02T01:53:43.357Z,98.30
2022-10-02T01:54:43.340Z,98.20
2022-10-02T01:55:43.349Z,97.99
2022-10-02T01:56:43.322Z,97.79
2022-10-02T01:57:43.304Z,97.54
2022-10-02T01:58:43.289Z,97.33
2022-10-02T01:59:43.272Z,97.33
2022-10-02T02:00:43.331Z,97.24
2022-10-02T02:01:43.242Z,97.33
2022-10-02T02:02:43.244Z,97.33
2022-10-02T02:03:43.213Z,97.33
2022-10-02T02:04:43.210Z,97.33
2022-10-02T02:05:43.203Z,97.54
2022-10-02T02:06:43.183Z,97.54
2022-10-02T02:07:43.171Z,97.44
2022-10-02T02:08:43.158Z,97.24
2022-10-02T02:09:43.155Z,97.44
2022-10-02T02:10:43.145Z,97.13
2022-10-02T02:11:43.114Z,96.92
2022-10-02T02:12:44.062Z,96.83
2022-10-02T02:13:43.085Z,96.78
2022-10-02T02:14:43.086Z,96.78
2022-10-02T02:15:43.074Z,96.58
2022-10-02T02:16:43.124Z,96.78
2022-10-02T02:17:43.037Z,96.58
2022-10-02T02:18:43.035Z,96.58
2022-10-02T02:19:43.013Z,96.58
2022-10-02T02:20:43.007Z,96.47
2022-10-02T02:21:42.987Z,96.68
2022-10-02T02:22:42.980Z,96.58
2022-10-02T02:23:42.962Z,96.58
2022-10-02T02:24:42.950Z,96.58
2022-10-02T02:25:42.945Z,96.68
2022-10-02T02:26:42.930Z,96.88
2022-10-02T02:27:42.910Z,96.88
2022-10-02T02:28:42.899Z,96.78
2022-10-02T02:29:42.879Z,96.37
2022-10-02T02:30:42.879Z,96.37
2022-10-02T02:31:42.880Z,96.06
2022-10-02T02:32:42.839Z,95.86
2022-10-02T02:33:42.821Z,95.86
2022-10-02T02:34:42.810Z,95.86
2022-10-02T02:35:42.809Z,95.76
2022-10-02T02:36:42.793Z,95.61
2022-10-02T02:37:42.772Z,95.76
2022-10-02T02:38:42.761Z,95.65
2022-10-02T02:39:42.751Z,95.65
2022-10-02T02:40:42.742Z,95.86
2022-10-02T02:41:43.682Z,95.86
2022-10-02T02:42:42.712Z,95.76
2022-10-02T02:43:42.693Z,95.96
2022-10-02T02:44:42.683Z,95.86
2022-10-02T02:45:42.721Z,96.01
2022-10-02T02:46:42.654Z,95.70
2022-10-02T02:47:42.652Z,95.80
2022-10-02T02:48:42.625Z,95.80
2022-10-02T02:49:42.624Z,95.90
2022-10-02T02:50:42.605Z,95.90
2022-10-02T02:51:42.596Z,96.01
2022-10-02T02:52:42.576Z,96.21
2022-10-02T02:53:42.566Z,96.11
2022-10-02T02:54:42.548Z,96.31
2022-10-02T02:55:45.047Z,96.15
2022-10-02T02:56:42.536Z,96.36
2022-10-02T02:57:42.516Z,96.36
2022-10-02T02:58:42.505Z,96.36
2022-10-02T02:59:42.488Z,96.36
2022-10-02T03:00:42.500Z,96.15
2022-10-02T03:01:42.523Z,96.36
2022-10-02T03:02:43.398Z,96.46
2022-10-02T03:03:42.437Z,96.56
2022-10-02T03:04:42.420Z,96.67
2022-10-02T03:05:42.420Z,96.56
2022-10-02T03:06:42.399Z,96.56
2022-10-02T03:07:42.390Z,96.56
2022-10-02T03:08:42.371Z,96.81
2022-10-02T03:09:42.360Z,96.81
2022-10-02T03:10:42.350Z,96.92
2022-10-02T03:11:42.330Z,97.12
2022-10-02T03:12:42.310Z,97.22
2022-10-02T03:13:42.309Z,97.33
2022-10-02T03:14:42.293Z,97.53
2022-10-02T03:15:42.329Z,97.42
2022-10-02T03:16:42.262Z,97.42
2022-10-02T03:17:42.251Z,97.42
2022-10-02T03:18:42.232Z,97.42
2022-10-02T03:19:42.222Z,97.53
2022-10-02T03:20:42.219Z,97.67
2022-10-02T03:21:42.211Z,97.78
2022-10-02T03:22:42.182Z,97.57
2022-10-02T03:23:42.174Z,97.67
2022-10-02T03:24:42.153Z,97.67
2022-10-02T03:25:42.164Z,97.67
2022-10-02T03:26:42.136Z,97.47
2022-10-02T03:27:42.122Z,97.57
2022-10-02T03:28:55.444Z,97.57
2022-10-02T03:29:43.095Z,97.67
2022-10-02T03:30:42.093Z,97.57
2022-10-02T03:31:42.090Z,97.47
2022-10-02T03:32:42.052Z,97.47
2022-10-02T03:33:42.035Z,97.47
2022-10-02T03:34:42.028Z,97.57
2022-10-02T03:35:42.026Z,97.47
2022-10-02T03:36:41.996Z,97.57
2022-10-02T03:37:41.986Z,97.67
2022-10-02T03:38:41.977Z,97.57
2022-10-02T03:39:41.957Z,97.57
2022-10-02T03:40:41.956Z,97.88
2022-10-02T03:41:41.937Z,97.88
2022-10-02T03:42:41.927Z,97.78
2022-10-02T03:43:41.909Z,97.78
2022-10-02T03:44:41.899Z,97.67
2022-10-02T03:45:57.264Z,97.57
2022-10-02T03:46:42.974Z,97.57
2022-10-02T03:47:41.860Z,97.57
2022-10-02T03:48:41.846Z,97.67
2022-10-02T03:49:41.830Z,97.67
2022-10-02T03:50:41.830Z,97.67
2022-10-02T03:51:41.807Z,97.67
2022-10-02T03:52:41.794Z,97.72
2022-10-02T03:53:41.783Z,97.82
2022-10-02T03:54:41.770Z,97.88
2022-10-02T03:55:41.751Z,97.92
2022-10-02T03:56:41.731Z,98.03
2022-10-02T03:57:41.731Z,97.92
2022-10-02T03:58:41.708Z,98.03
2022-10-02T03:59:41.712Z,98.03
2022-10-02T04:00:41.684Z,97.92
2022-10-02T04:01:45.618Z,97.92
2022-10-02T04:02:42.653Z,97.92
2022-10-02T04:03:41.670Z,97.82
2022-10-02T04:04:41.644Z,97.82
2022-10-02T04:05:41.625Z,97.82
2022-10-02T04:06:41.613Z,97.82
2022-10-02T04:07:41.594Z,97.72
2022-10-02T04:08:41.584Z,97.62
2022-10-02T04:09:41.584Z,97.52
2022-10-02T04:10:41.564Z,97.57
2022-10-02T04:11:41.546Z,97.57
2022-10-02T04:12:42.484Z,97.57
2022-10-02T04:13:41.516Z,97.47
2022-10-02T04:14:41.517Z,97.52
2022-10-02T04:15:41.486Z,97.52
2022-10-02T04:16:41.551Z,97.62
2022-10-02T04:17:41.467Z,97.62
2022-10-02T04:18:41.446Z,97.62
2022-10-02T04:19:41.447Z,97.72
2022-10-02T04:20:42.378Z,97.82
2022-10-02T04:21:41.409Z,97.82
2022-10-02T04:22:41.396Z,97.92
2022-10-02T04:23:41.388Z,97.82
2022-10-02T04:24:41.378Z,97.82
2022-10-02T04:25:41.359Z,97.92
2022-10-02T04:26:41.349Z,97.97
2022-10-02T04:27:41.330Z,97.97
2022-10-02T04:28:42.271Z,97.97
2022-10-02T04:29:42.275Z,98.07
2022-10-02T04:30:41.290Z,98.28
2022-10-02T04:31:41.341Z,98.38
2022-10-02T04:32:41.270Z,98.58
2022-10-02T04:33:41.269Z,98.69
2022-10-02T04:34:41.301Z,98.69
2022-10-02T04:35:41.233Z,98.58
2022-10-02T04:36:41.214Z,98.49
2022-10-02T04:37:41.202Z,98.49
2022-10-02T04:38:41.187Z,98.38
2022-10-02T04:39:45.831Z,98.53
2022-10-02T04:40:42.163Z,98.58
2022-10-02T04:41:41.164Z,98.69
2022-10-02T04:42:41.133Z,98.83
2022-10-02T04:43:41.123Z,98.74
2022-10-02T04:44:41.113Z,98.74
2022-10-02T04:45:41.176Z,98.74
2022-10-02T04:46:41.082Z,98.83
2022-10-02T04:47:41.075Z,98.83
2022-10-02T04:48:41.056Z,98.74
2022-10-02T04:49:41.062Z,98.74
2022-10-02T04:50:41.025Z,98.83
2022-10-02T04:51:41.026Z,98.94
2022-10-02T04:52:41.006Z,99.04
2022-10-02T04:53:40.996Z,99.15
2022-10-02T04:54:40.985Z,99.15
2022-10-02T04:55:40.968Z,99.15
2022-10-02T04:56:40.948Z,99.25
2022-10-02T04:57:40.936Z,99.15
2022-10-02T04:58:41.866Z,99.25
2022-10-02T04:59:40.926Z,99.35
2022-10-02T05:00:40.942Z,99.25
2022-10-02T05:01:40.976Z,99.15
2022-10-02T05:02:40.870Z,99.04
2022-10-02T05:03:41.825Z,99.04
2022-10-02T05:04:40.868Z,98.94
2022-10-02T05:05:40.849Z,98.83
2022-10-02T05:06:40.829Z,98.74
2022-10-02T05:07:40.820Z,98.63
2022-10-02T05:08:40.800Z,98.63
2022-10-02T05:09:40.801Z,98.63
2022-10-02T05:10:40.770Z,98.63
2022-10-02T05:11:40.760Z,98.74
2022-10-02T05:12:40.740Z,98.74
2022-10-02T05:13:40.734Z,98.83
2022-10-02T05:14:40.720Z,98.83
2022-10-02T05:15:40.703Z,98.83
2022-10-02T05:16:41.017Z,98.83
2022-10-02T05:17:40.683Z,98.83
2022-10-02T05:18:40.676Z,98.83
2022-10-02T05:19:40.662Z,98.94
2022-10-02T05:20:40.635Z,99.04
2022-10-02T05:21:40.635Z,99.15
2022-10-02T05:22:40.614Z,99.15
2022-10-02T05:23:41.574Z,99.25
2022-10-02T05:24:40.590Z,99.25
2022-10-02T05:25:40.573Z,99.15
2022-10-02T05:26:40.566Z,99.35
2022-10-02T05:27:40.554Z,99.35
2022-10-02T05:28:40.546Z,99.45
2022-10-02T05:29:40.522Z,99.45
2022-10-02T05:30:40.513Z,99.45
2022-10-02T05:31:40.535Z,99.45
2022-10-02T05:32:40.477Z,99.66
2022-10-02T05:33:43.583Z,99.66
2022-10-02T05:34:41.446Z,99.55
2022-10-02T05:35:40.445Z,99.55
2022-10-02T05:36:40.426Z,99.66
2022-10-02T05:37:40.417Z,99.55
2022-10-02T05:38:40.417Z,99.45
2022-10-02T05:39:40.393Z,99.45
2022-10-02T05:40:40.382Z,99.35
2022-10-02T05:41:40.365Z,99.35
2022-10-02T05:42:43.185Z,99.35
2022-10-02T05:43:40.348Z,99.45
2022-10-02T05:44:40.327Z,99.30
2022-10-02T05:45:40.311Z,99.35
2022-10-02T05:46:40.737Z,99.20
2022-10-02T05:47:40.288Z,99.10
2022-10-02T05:48:40.292Z,99.10
2022-10-02T05:49:40.259Z,99.10
2022-10-02T05:50:40.246Z,99.10
2022-10-02T05:51:40.237Z,98.99
2022-10-02T05:52:40.221Z,98.90
2022-10-02T05:53:40.220Z,98.79
2022-10-02T05:54:40.210Z,98.69
2022-10-02T05:55:40.190Z,98.79
2022-10-02T05:56:40.162Z,98.79
2022-10-02T05:57:40.191Z,98.79
2022-10-02T05:58:40.166Z,98.69
2022-10-02T05:59:40.132Z,98.69
2022-10-02T06:00:40.175Z,98.69
2022-10-02T06:01:40.181Z,98.69
2022-10-02T06:02:40.213Z,98.69
2022-10-02T06:03:40.082Z,98.69
2022-10-02T06:04:40.063Z,98.69
2022-10-02T06:05:40.053Z,98.79
2022-10-02T06:06:40.245Z,98.58
2022-10-02T06:07:40.036Z,98.54
2022-10-02T06:08:40.024Z,98.49
2022-10-02T06:09:40.006Z,98.58
2022-10-02T06:10:39.984Z,98.58
2022-10-02T06:11:39.975Z,98.69
2022-10-02T06:12:39.955Z,98.79
2022-10-02T06:13:39.954Z,98.74
2022-10-02T06:14:40.888Z,98.74
2022-10-02T06:15:39.925Z,98.85
2022-10-02T06:16:40.429Z,98.74
2022-10-02T06:17:39.895Z,98.74
2022-10-02T06:18:39.886Z,98.85
2022-10-02T06:19:39.867Z,98.85
2022-10-02T06:20:39.857Z,98.95
2022-10-02T06:21:39.847Z,99.05
2022-10-02T06:22:39.836Z,99.15
2022-10-02T06:23:39.830Z,98.90
2022-10-02T06:24:39.808Z,98.90
2022-10-02T06:25:39.796Z,98.90
2022-10-02T06:26:39.855Z,98.90
2022-10-02T06:27:39.758Z,98.90
2022-10-02T06:28:39.760Z,98.80
2022-10-02T06:29:39.739Z,98.90
2022-10-02T06:30:39.719Z,99.01
2022-10-02T06:31:39.754Z,98.90
2022-10-02T06:32:39.698Z,98.96
2022-10-02T06:33:39.700Z,98.65
2022-10-02T06:34:39.671Z,98.86
2022-10-02T06:35:39.661Z,98.65
2022-10-02T06:36:39.815Z,98.65
2022-10-02T06:37:39.631Z,98.75
2022-10-02T06:38:39.629Z,98.71
2022-10-02T06:39:39.609Z,98.50
2022-10-02T06:40:39.591Z,98.30
2022-10-02T06:41:40.531Z,98.30
2022-10-02T06:42:39.562Z,98.10
2022-10-02T06:43:39.563Z,97.89
2022-10-02T06:44:39.533Z,97.64
2022-10-02T06:45:39.552Z,97.44
2022-10-02T06:46:39.747Z,97.44
2022-10-02T06:47:39.504Z,97.44
2022-10-02T06:48:40.453Z,97.33
2022-10-02T06:49:39.480Z,97.19
2022-10-02T06:50:39.454Z,97.08
2022-10-02T06:51:39.455Z,97.08
2022-10-02T06:52:40.383Z,96.84
2022-10-02T06:53:39.436Z,96.84
2022-10-02T06:54:39.405Z,96.63
2022-10-02T06:55:39.395Z,96.38
2022-10-02T06:56:39.724Z,96.22
2022-10-02T06:57:39.366Z,95.97
2022-10-02T06:58:39.357Z,95.97
2022-10-02T06:59:39.337Z,95.87
2022-10-02T07:00:39.409Z,95.77
2022-10-02T07:01:39.380Z,95.77
2022-10-02T07:02:39.296Z,95.42
2022-10-02T07:03:39.299Z,95.21
2022-10-02T07:04:39.278Z,95.01
2022-10-02T07:05:39.269Z,95.01
2022-10-02T07:06:39.656Z,94.91
2022-10-02T07:07:39.248Z,95.12
2022-10-02T07:08:39.218Z,95.07
2022-10-02T07:09:39.208Z,94.87
2022-10-02T07:10:39.199Z,94.76
2022-10-02T07:11:39.179Z,94.72
2022-10-02T07:12:39.181Z,94.42
2022-10-02T07:13:39.159Z,94.21
2022-10-02T07:14:39.154Z,93.96
2022-10-02T07:15:39.132Z,93.35
2022-10-02T07:16:39.803Z,93.45
2022-10-02T07:17:39.117Z,92.90
2022-10-02T07:18:39.092Z,92.25
2022-10-02T07:19:39.085Z,92.04
2022-10-02T07:20:39.073Z,91.90
2022-10-02T07:21:39.051Z,92.00
2022-10-02T07:22:44.884Z,91.29
2022-10-02T07:23:40.030Z,90.78
2022-10-02T07:24:39.014Z,90.88
2022-10-02T07:25:38.994Z,90.88
2022-10-02T07:26:39.374Z,91.19
2022-10-02T07:27:38.973Z,90.78
2022-10-02T07:28:39.912Z,90.44
2022-10-02T07:29:38.944Z,90.84
2022-10-02T07:30:38.934Z,90.74
2022-10-02T07:31:38.980Z,90.64
2022-10-02T07:32:38.906Z,90.58
2022-10-02T07:33:38.904Z,90.99
2022-10-02T07:34:38.875Z,91.19
2022-10-02T07:35:39.035Z,91.60
2022-10-02T07:36:39.171Z,91.60
2022-10-02T07:37:38.836Z,90.99
2022-10-02T07:38:38.837Z,91.09
2022-10-02T07:39:38.815Z,91.25
2022-10-02T07:40:38.808Z,91.55
2022-10-02T07:41:38.787Z,91.86
2022-10-02T07:42:38.778Z,91.96
2022-10-02T07:43:38.768Z,91.96
2022-10-02T07:44:38.760Z,92.16
2022-10-02T07:45:38.796Z,91.25
2022-10-02T07:46:39.036Z,91.05
2022-10-02T07:47:38.719Z,91.25
2022-10-02T07:48:38.700Z,91.25
2022-10-02T07:49:38.684Z,91.14
2022-10-02T07:50:38.677Z,91.14
2022-10-02T07:51:38.660Z,90.59
2022-10-02T07:52:38.660Z,90.29
2022-10-02T07:53:38.631Z,90.96
2022-10-02T07:54:38.621Z,90.14
2022-10-02T07:55:38.602Z,89.59
2022-10-02T07:56:38.788Z,89.29
2022-10-02T07:57:38.591Z,88.75
2022-10-02T07:58:38.573Z,88.75
2022-10-02T07:59:38.553Z,89.01
2022-10-02T08:00:39.498Z,88.90
2022-10-02T08:01:38.533Z,87.45
2022-10-02T08:02:38.533Z,86.53
2022-10-02T08:03:38.553Z,86.02
2022-10-02T08:04:38.494Z,85.68
2022-10-02T08:05:38.477Z,85.54
2022-10-02T08:06:38.814Z,86.31
2022-10-02T08:07:38.455Z,85.30
2022-10-02T08:08:38.446Z,85.36
2022-10-02T08:09:38.430Z,82.62
2022-10-02T08:10:38.425Z,82.46
2022-10-02T08:11:38.396Z,85.05
2022-10-02T08:12:38.399Z,83.13
2022-10-02T08:13:38.374Z,82.93
2022-10-02T08:14:38.366Z,83.13
2022-10-02T08:15:38.348Z,83.84
2022-10-02T08:16:38.816Z,82.67
2022-10-02T08:17:38.335Z,83.98
2022-10-02T08:18:38.310Z,83.41
2022-10-02T08:19:38.295Z,84.56
2022-10-02T08:20:38.291Z,84.56
2022-10-02T08:21:38.269Z,83.90
2022-10-02T08:22:38.271Z,83.90
2022-10-02T08:23:38.240Z,83.90
2022-10-02T08:24:38.240Z,85.31
2022-10-02T08:25:38.240Z,84.41
2022-10-02T08:26:38.485Z,85.31
2022-10-02T08:27:38.201Z,86.22
2022-10-02T08:28:38.181Z,86.83
2022-10-02T08:29:38.163Z,86.07
2022-10-02T08:30:38.152Z,86.68
2022-10-02T08:31:38.180Z,87.18
2022-10-02T08:32:38.133Z,87.45
2022-10-02T08:33:38.113Z,87.24
2022-10-02T08:34:38.104Z,88.25
2022-10-02T08:35:38.083Z,89.02
2022-10-02T08:36:38.566Z,87.30
2022-10-02T08:37:38.084Z,87.00
2022-10-02T08:38:38.044Z,87.40
2022-10-02T08:39:38.034Z,85.78
2022-10-02T08:40:38.025Z,87.40
2022-10-02T08:41:38.010Z,87.30
2022-10-02T08:42:38.006Z,87.71
2022-10-02T08:43:37.976Z,86.59
2022-10-02T08:44:37.966Z,87.51
2022-10-02T08:45:38.037Z,87.00
2022-10-02T08:46:38.301Z,89.23
2022-10-02T08:47:37.945Z,88.31
2022-10-02T08:48:37.919Z,88.72
2022-10-02T08:49:37.908Z,88.42
2022-10-02T08:50:37.898Z,88.72
2022-10-02T08:51:37.881Z,88.57
2022-10-02T08:52:37.879Z,88.42
2022-10-02T08:53:37.850Z,87.81
2022-10-02T08:54:37.840Z,88.11
2022-10-02T08:55:37.822Z,88.31
2022-10-02T08:56:37.982Z,88.92
2022-10-02T08:57:37.816Z,88.82
2022-10-02T08:58:37.790Z,88.92
2022-10-02T08:59:37.771Z,88.62
2022-10-02T09:00:37.805Z,88.92
2022-10-02T09:01:37.752Z,89.32
2022-10-02T09:02:37.800Z,89.83
2022-10-02T09:03:37.722Z,88.92
2022-10-02T09:04:37.704Z,89.43
2022-10-02T09:05:37.703Z,89.23
2022-10-02T09:06:38.980Z,88.98
2022-10-02T09:07:37.679Z,88.78
2022-10-02T09:08:37.654Z,89.39
2022-10-02T09:09:37.634Z,88.94
2022-10-02T09:10:37.625Z,88.79
2022-10-02T09:11:37.616Z,88.70
2022-10-02T09:12:37.600Z,88.70
2022-10-02T09:13:37.585Z,87.48
2022-10-02T09:14:37.576Z,88.79
2022-10-02T09:15:37.556Z,86.47
2022-10-02T09:16:37.807Z,88.64
2022-10-02T09:17:37.538Z,88.74
2022-10-02T09:18:38.474Z,89.24
2022-10-02T09:19:37.508Z,89.54
2022-10-02T09:20:37.497Z,90.56
2022-10-02T09:21:37.487Z,90.16
2022-10-02T09:22:37.469Z,90.16
2022-10-02T09:23:38.405Z,90.92
2022-10-02T09:24:37.439Z,89.20
2022-10-02T09:25:37.426Z,89.20
2022-10-02T09:26:37.704Z,89.50
2022-10-02T09:27:37.399Z,88.96
2022-10-02T09:28:37.391Z,87.58
2022-10-02T09:29:37.371Z,88.79
2022-10-02T09:30:37.361Z,88.53
2022-10-02T09:31:38.374Z,87.22
2022-10-02T09:32:37.333Z,87.28
2022-10-02T09:33:37.319Z,87.08
2022-10-02T09:34:37.303Z,87.99
2022-10-02T09:35:37.293Z,87.28
2022-10-02T09:36:37.410Z,88.09
2022-10-02T09:37:37.264Z,87.99
2022-10-02T09:38:39.221Z,87.52
2022-10-02T09:39:37.234Z,87.22
2022-10-02T09:40:37.232Z,88.43
2022-10-02T09:41:37.214Z,88.02
2022-10-02T09:42:37.206Z,88.74
2022-10-02T09:43:37.186Z,88.53
2022-10-02T09:44:37.177Z,88.02
2022-10-02T09:45:37.186Z,88.79
2022-10-02T09:46:37.428Z,89.00
2022-10-02T09:47:37.130Z,88.85
2022-10-02T09:48:37.136Z,86.87
2022-10-02T09:49:37.097Z,87.95
2022-10-02T09:50:37.089Z,87.54
2022-10-02T09:51:37.086Z,87.54
2022-10-02T09:52:40.646Z,86.90
2022-10-02T09:53:38.051Z,85.88
2022-10-02T09:54:37.039Z,85.14
2022-10-02T09:55:37.026Z,84.73
2022-10-02T09:56:37.418Z,86.55
2022-10-02T09:57:36.999Z,86.00
2022-10-02T09:58:36.990Z,85.60
2022-10-02T09:59:36.976Z,85.66
2022-10-02T10:00:36.983Z,86.47
2022-10-02T10:01:36.951Z,87.58
2022-10-02T10:02:36.977Z,84.05
2022-10-02T10:03:36.919Z,85.31
2022-10-02T10:04:54.162Z,85.42
2022-10-02T10:05:37.892Z,84.51
2022-10-02T10:06:37.029Z,84.51
2022-10-02T10:07:36.863Z,84.11
2022-10-02T10:08:36.854Z,84.31
2022-10-02T10:09:37.786Z,84.41
2022-10-02T10:10:36.825Z,85.42
2022-10-02T10:11:37.001Z,84.51
2022-10-02T10:12:37.753Z,84.47
2022-10-02T10:13:36.784Z,83.46
2022-10-02T10:14:36.796Z,82.79
2022-10-02T10:15:36.758Z,84.31
2022-10-02T10:16:37.735Z,84.21
2022-10-02T10:17:37.678Z,83.54
2022-10-02T10:18:36.727Z,85.30
2022-10-02T10:19:36.707Z,85.40
2022-10-02T10:20:36.711Z,84.63
2022-10-02T10:21:36.873Z,85.38
2022-10-02T10:22:36.686Z,85.88
2022-10-02T10:23:36.664Z,86.39
2022-10-02T10:24:36.649Z,85.17
2022-10-02T10:25:36.638Z,85.64
2022-10-02T10:26:36.621Z,85.08
2022-10-02T10:27:36.601Z,85.48
2022-10-02T10:28:36.590Z,85.99
2022-10-02T10:29:36.570Z,86.08
2022-10-02T10:30:36.573Z,85.38
2022-10-02T10:31:36.872Z,86.63
2022-10-02T10:32:36.544Z,85.68
2022-10-02T10:33:37.474Z,85.48
2022-10-02T10:34:37.470Z,87.05
2022-10-02T10:35:36.508Z,86.85
2022-10-02T10:36:37.440Z,86.55
2022-10-02T10:37:36.474Z,86.35
2022-10-02T10:38:37.420Z,86.75
2022-10-02T10:39:36.440Z,85.80
2022-10-02T10:40:36.447Z,85.40
2022-10-02T10:41:36.669Z,85.30
2022-10-02T10:42:50.186Z,85.40
2022-10-02T10:43:37.395Z,83.98
2022-10-02T10:44:36.388Z,85.34
2022-10-02T10:45:37.379Z,86.04
2022-10-02T10:46:36.357Z,85.58
2022-10-02T10:47:36.344Z,87.10
2022-10-02T10:48:36.327Z,85.78
2022-10-02T10:49:36.318Z,86.99
2022-10-02T10:50:36.309Z,86.04
2022-10-02T10:51:36.501Z,86.45
2022-10-02T10:52:36.278Z,86.25
2022-10-02T10:53:36.259Z,86.19
2022-10-02T10:54:36.250Z,85.68
2022-10-02T10:55:36.240Z,86.49
2022-10-02T10:56:36.221Z,87.50
2022-10-02T10:57:36.208Z,86.39
2022-10-02T10:58:36.201Z,86.69
2022-10-02T10:59:36.181Z,86.19
2022-10-02T11:00:36.182Z,86.15
2022-10-02T11:01:36.448Z,85.24
2022-10-02T11:02:36.200Z,85.64
2022-10-02T11:03:36.133Z,84.23
2022-10-02T11:04:36.113Z,83.26
2022-10-02T11:05:36.113Z,84.57
2022-10-02T11:06:36.090Z,85.22
2022-10-02T11:07:36.074Z,84.91
2022-10-02T11:08:36.061Z,85.52
2022-10-02T11:09:36.044Z,85.11
2022-10-02T11:10:36.045Z,84.81
2022-10-02T11:11:36.211Z,85.22
2022-10-02T11:12:36.016Z,85.93
2022-10-02T11:13:35.997Z,84.11
2022-10-02T11:14:35.987Z,84.61
2022-10-02T11:15:35.977Z,84.41
2022-10-02T11:16:35.983Z,84.71
2022-10-02T11:17:35.948Z,85.42
2022-10-02T11:18:35.927Z,84.81
2022-10-02T11:19:35.919Z,84.06
2022-10-02T11:20:35.910Z,84.67
2022-10-02T11:21:36.064Z,84.57
2022-10-02T11:22:35.877Z,84.67
2022-10-02T11:23:35.859Z,82.85
2022-10-02T11:24:36.803Z,83.66
2022-10-02T11:25:35.852Z,83.76
2022-10-02T11:26:35.820Z,84.57
2022-10-02T11:27:35.811Z,84.87
2022-10-02T11:28:35.791Z,83.66
2022-10-02T11:29:35.791Z,84.43
2022-10-02T11:30:40.808Z,82.71
2022-10-02T11:31:37.022Z,83.72
2022-10-02T11:32:35.744Z,84.33
2022-10-02T11:33:35.732Z,83.88
2022-10-02T11:34:35.713Z,83.98
2022-10-02T11:35:35.721Z,83.58
2022-10-02T11:36:35.690Z,84.15
2022-10-02T11:37:35.684Z,82.39
2022-10-02T11:38:35.669Z,82.79
2022-10-02T11:39:35.654Z,80.98
2022-10-02T11:40:35.646Z,82.05
2022-10-02T11:41:35.913Z,81.75
2022-10-02T11:42:35.617Z,82.96
2022-10-02T11:43:36.366Z,82.11
2022-10-02T11:44:35.596Z,81.75
2022-10-02T11:45:35.606Z,82.11
2022-10-02T11:46:36.527Z,81.04
2022-10-02T11:47:35.554Z,81.95
2022-10-02T11:48:35.543Z,82.90
2022-10-02T11:49:35.537Z,80.72
2022-10-02T11:50:35.509Z,80.82
2022-10-02T11:51:35.824Z,82.33
2022-10-02T11:52:35.479Z,81.52
2022-10-02T11:53:35.470Z,80.85
2022-10-02T11:54:35.466Z,81.52
2022-10-02T11:55:35.443Z,82.64
2022-10-02T11:56:35.431Z,83.00
2022-10-02T11:57:35.411Z,84.01
2022-10-02T11:58:35.402Z,83.16
2022-10-02T11:59:35.401Z,81.55
2022-10-02T12:00:35.381Z,80.80
2022-10-02T12:01:35.593Z,79.33
2022-10-02T12:02:35.431Z,78.63
2022-10-02T12:03:35.355Z,79.63
2022-10-02T12:04:35.337Z,79.13
2022-10-02T12:05:35.314Z,80.33
2022-10-02T12:06:35.304Z,79.29
2022-10-02T12:07:35.296Z,79.80
2022-10-02T12:08:35.272Z,78.79
2022-10-02T12:09:35.266Z,78.79
2022-10-02T12:10:35.246Z,79.39
2022-10-02T12:11:35.468Z,79.56
2022-10-02T12:12:35.212Z,79.49
2022-10-02T12:13:35.202Z,80.10
2022-10-02T12:14:35.196Z,79.49
2022-10-02T12:15:35.182Z,79.60
2022-10-02T12:16:35.232Z,79.80
2022-10-02T12:17:35.171Z,80.60
2022-10-02T12:18:35.148Z,80.10
2022-10-02T12:19:35.139Z,79.80
2022-10-02T12:20:35.122Z,80.24
2022-10-02T12:21:35.317Z,79.73
2022-10-02T12:22:35.090Z,78.72
2022-10-02T12:23:35.090Z,79.57
2022-10-02T12:24:35.066Z,80.38
2022-10-02T12:25:35.052Z,81.79
2022-10-02T12:26:35.043Z,79.57
2022-10-02T12:27:35.022Z,81.52
2022-10-02T12:28:35.024Z,79.91
2022-10-02T12:29:35.002Z,80.21
2022-10-02T12:30:35.943Z,81.52
2022-10-02T12:31:35.598Z,80.11
2022-10-02T12:32:34.963Z,81.62
2022-10-02T12:33:34.955Z,82.64
2022-10-02T12:34:34.934Z,80.31
2022-10-02T12:35:34.923Z,81.12
2022-10-02T12:36:34.908Z,82.73
2022-10-02T12:37:34.896Z,81.36
2022-10-02T12:38:34.887Z,82.37
2022-10-02T12:39:34.867Z,82.47
2022-10-02T12:40:34.846Z,83.01
2022-10-02T12:41:35.223Z,83.62
2022-10-02T12:42:34.827Z,84.03
2022-10-02T12:43:34.828Z,84.77
2022-10-02T12:44:34.807Z,85.42
2022-10-02T12:45:34.858Z,86.02
2022-10-02T12:46:34.777Z,85.82
2022-10-02T12:47:34.759Z,86.33
2022-10-02T12:48:34.759Z,85.82
2022-10-02T12:49:34.739Z,86.07
2022-10-02T12:50:34.731Z,86.67
2022-10-02T12:51:35.010Z,85.90
2022-10-02T12:52:34.700Z,87.08